sensor_id;sensor_type;location;lat;lon;timestamp;pressure;altitude;pressure_sealevel;temperature;humidity
74633;BME280;63139;52.018;8.552;2023-06-14T00:02:00;100497.66;;;14.09;54.65
74633;BME280;63139;52.018;8.552;2023-06-14T00:04:29;100494.13;;;14.02;54.54
74633;BME280;63139;52.018;8.552;2023-06-14T00:06:57;100495.53;;;13.97;54.86
74633;BME280;63139;52.018;8.552;2023-06-14T00:09:27;100501.44;;;13.93;55.08
74633;BME280;63139;52.018;8.552;2023-06-14T00:11:55;100503.63;;;13.89;55.28
74633;BME280;63139;52.018;8.552;2023-06-14T00:14:22;100500.72;;;13.84;55.70
74633;BME280;63139;52.018;8.552;2023-06-14T00:16:50;100504.75;;;13.80;55.82
74633;BME280;63139;52.018;8.552;2023-06-14T00:19:19;100509.66;;;13.77;56.31
74633;BME280;63139;52.018;8.552;2023-06-14T00:21:47;100514.50;;;13.73;56.19
74633;BME280;63139;52.018;8.552;2023-06-14T00:24:15;100509.75;;;13.69;56.43
74633;BME280;63139;52.018;8.552;2023-06-14T00:26:44;100517.09;;;13.67;56.83
74633;BME280;63139;52.018;8.552;2023-06-14T00:29:12;100510.28;;;13.64;57.27
74633;BME280;63139;52.018;8.552;2023-06-14T00:31:40;100516.19;;;13.59;57.00
74633;BME280;63139;52.018;8.552;2023-06-14T00:34:07;100516.75;;;13.55;57.19
74633;BME280;63139;52.018;8.552;2023-06-14T00:36:36;100511.81;;;13.52;57.58
74633;BME280;63139;52.018;8.552;2023-06-14T00:39:04;100521.78;;;13.50;58.02
74633;BME280;63139;52.018;8.552;2023-06-14T00:41:31;100525.03;;;13.45;57.88
74633;BME280;63139;52.018;8.552;2023-06-14T00:44:00;100525.38;;;13.42;58.22
74633;BME280;63139;52.018;8.552;2023-06-14T00:46:29;100523.13;;;13.39;58.11
74633;BME280;63139;52.018;8.552;2023-06-14T00:48:58;100523.47;;;13.36;58.57
74633;BME280;63139;52.018;8.552;2023-06-14T00:51:28;100518.53;;;13.33;58.29
74633;BME280;63139;52.018;8.552;2023-06-14T00:53:55;100522.56;;;13.29;58.36
74633;BME280;63139;52.018;8.552;2023-06-14T00:56:23;100519.25;;;13.27;58.56
74633;BME280;63139;52.018;8.552;2023-06-14T00:58:51;100535.41;;;13.26;58.94
74633;BME280;63139;52.018;8.552;2023-06-14T01:01:20;100527.78;;;13.23;58.98
74633;BME280;63139;52.018;8.552;2023-06-14T01:03:48;100527.97;;;13.21;59.04
74633;BME280;63139;52.018;8.552;2023-06-14T01:06:23;100523.88;;;13.18;59.56
74633;BME280;63139;52.018;8.552;2023-06-14T01:09:03;100524.88;;;13.17;59.56
74633;BME280;63139;52.018;8.552;2023-06-14T01:11:41;100518.06;;;13.15;59.71
74633;BME280;63139;52.018;8.552;2023-06-14T01:14:13;100526.22;;;13.13;59.45
74633;BME280;63139;52.018;8.552;2023-06-14T01:16:44;100521.06;;;13.12;59.48
74633;BME280;63139;52.018;8.552;2023-06-14T01:19:12;100523.28;;;13.08;59.66
74633;BME280;63139;52.018;8.552;2023-06-14T01:21:40;100527.94;;;13.06;59.86
74633;BME280;63139;52.018;8.552;2023-06-14T01:24:10;100526.28;;;13.05;59.81
74633;BME280;63139;52.018;8.552;2023-06-14T01:26:38;100528.94;;;13.05;60.55
74633;BME280;63139;52.018;8.552;2023-06-14T01:29:13;100520.53;;;13.02;60.76
74633;BME280;63139;52.018;8.552;2023-06-14T01:31:45;100526.19;;;12.99;60.24
74633;BME280;63139;52.018;8.552;2023-06-14T01:34:14;100533.72;;;12.95;60.24
74633;BME280;63139;52.018;8.552;2023-06-14T01:36:44;100530.75;;;12.90;60.63
74633;BME280;63139;52.018;8.552;2023-06-14T01:39:15;100535.47;;;12.88;60.54
74633;BME280;63139;52.018;8.552;2023-06-14T01:41:44;100537.47;;;12.86;60.77
74633;BME280;63139;52.018;8.552;2023-06-14T01:44:13;100542.13;;;12.84;60.79
74633;BME280;63139;52.018;8.552;2023-06-14T01:46:43;100542.84;;;12.78;60.86
74633;BME280;63139;52.018;8.552;2023-06-14T01:49:11;100545.84;;;12.75;61.41
74633;BME280;63139;52.018;8.552;2023-06-14T01:51:39;100541.09;;;12.70;61.73
74633;BME280;63139;52.018;8.552;2023-06-14T01:54:08;100537.16;;;12.66;61.81
74633;BME280;63139;52.018;8.552;2023-06-14T01:56:38;100544.66;;;12.63;62.05
74633;BME280;63139;52.018;8.552;2023-06-14T01:59:06;100538.22;;;12.57;62.21
74633;BME280;63139;52.018;8.552;2023-06-14T02:01:34;100543.88;;;12.54;62.31
74633;BME280;63139;52.018;8.552;2023-06-14T02:04:03;100543.78;;;12.48;62.61
74633;BME280;63139;52.018;8.552;2023-06-14T02:06:31;100545.78;;;12.45;62.85
74633;BME280;63139;52.018;8.552;2023-06-14T02:09:00;100543.69;;;12.41;62.65
74633;BME280;63139;52.018;8.552;2023-06-14T02:11:29;100545.84;;;12.37;62.85
74633;BME280;63139;52.018;8.552;2023-06-14T02:13:58;100547.22;;;12.33;63.08
74633;BME280;63139;52.018;8.552;2023-06-14T02:16:26;100552.06;;;12.30;63.26
74633;BME280;63139;52.018;8.552;2023-06-14T02:18:56;100548.94;;;12.26;63.46
74633;BME280;63139;52.018;8.552;2023-06-14T02:21:24;100545.00;;;12.22;63.64
74633;BME280;63139;52.018;8.552;2023-06-14T02:23:52;100552.47;;;12.19;63.98
74633;BME280;63139;52.018;8.552;2023-06-14T02:26:19;100552.81;;;12.16;64.15
74633;BME280;63139;52.018;8.552;2023-06-14T02:28:47;100559.50;;;12.12;64.16
74633;BME280;63139;52.018;8.552;2023-06-14T02:31:16;100557.00;;;12.10;64.38
74633;BME280;63139;52.018;8.552;2023-06-14T02:33:48;100562.69;;;12.07;64.51
74633;BME280;63139;52.018;8.552;2023-06-14T02:36:15;100563.03;;;12.04;64.66
74633;BME280;63139;52.018;8.552;2023-06-14T02:38:43;100563.34;;;12.01;64.89
74633;BME280;63139;52.018;8.552;2023-06-14T02:41:11;100557.59;;;11.97;65.00
74633;BME280;63139;52.018;8.552;2023-06-14T02:43:39;100566.53;;;11.96;65.11
74633;BME280;63139;52.018;8.552;2023-06-14T02:46:07;100569.53;;;11.93;65.27
74633;BME280;63139;52.018;8.552;2023-06-14T02:48:36;100566.09;;;11.93;66.16
74633;BME280;63139;52.018;8.552;2023-06-14T02:51:04;100569.69;;;12.00;66.42
74633;BME280;63139;52.018;8.552;2023-06-14T02:53:32;100563.03;;;12.04;66.22
74633;BME280;63139;52.018;8.552;2023-06-14T02:56:00;100568.63;;;12.09;66.04
74633;BME280;63139;52.018;8.552;2023-06-14T02:58:30;100567.94;;;12.15;66.06
74633;BME280;63139;52.018;8.552;2023-06-14T03:00:58;100571.22;;;12.17;65.93
74633;BME280;63139;52.018;8.552;2023-06-14T03:03:30;100579.19;;;12.17;65.81
74633;BME280;63139;52.018;8.552;2023-06-14T03:05:59;100575.69;;;12.17;65.92
74633;BME280;63139;52.018;8.552;2023-06-14T03:08:33;100581.00;;;12.17;66.46
74633;BME280;63139;52.018;8.552;2023-06-14T03:11:11;100584.66;;;12.16;66.26
74633;BME280;63139;52.018;8.552;2023-06-14T03:13:39;100588.34;;;12.15;66.17
74633;BME280;63139;52.018;8.552;2023-06-14T03:16:07;100588.50;;;12.13;66.25
74633;BME280;63139;52.018;8.552;2023-06-14T03:18:38;100580.56;;;12.13;66.63
74633;BME280;63139;52.018;8.552;2023-06-14T03:21:08;100585.03;;;12.13;66.43
74633;BME280;63139;52.018;8.552;2023-06-14T03:23:40;100588.69;;;12.12;66.37
74633;BME280;63139;52.018;8.552;2023-06-14T03:26:08;100580.88;;;12.10;66.29
74633;BME280;63139;52.018;8.552;2023-06-14T03:28:40;100580.72;;;12.12;66.56
74633;BME280;63139;52.018;8.552;2023-06-14T03:31:08;100584.22;;;12.12;66.56
74633;BME280;63139;52.018;8.552;2023-06-14T03:33:36;100584.88;;;12.14;66.68
74633;BME280;63139;52.018;8.552;2023-06-14T03:36:04;100578.91;;;12.12;66.61
74633;BME280;63139;52.018;8.552;2023-06-14T03:38:34;100583.88;;;12.15;66.55
74633;BME280;63139;52.018;8.552;2023-06-14T03:41:03;100587.16;;;12.17;66.52
74633;BME280;63139;52.018;8.552;2023-06-14T03:43:31;100590.47;;;12.19;66.74
74633;BME280;63139;52.018;8.552;2023-06-14T03:46:00;100599.09;;;12.21;66.57
74633;BME280;63139;52.018;8.552;2023-06-14T03:48:29;100600.53;;;12.24;66.77
74633;BME280;63139;52.018;8.552;2023-06-14T03:50:57;100602.69;;;12.28;66.85
74633;BME280;63139;52.018;8.552;2023-06-14T03:53:28;100609.94;;;12.34;66.45
74633;BME280;63139;52.018;8.552;2023-06-14T03:55:58;100610.59;;;12.36;66.66
74633;BME280;63139;52.018;8.552;2023-06-14T03:58:34;100615.84;;;12.44;67.04
74633;BME280;63139;52.018;8.552;2023-06-14T04:01:01;100618.56;;;12.59;66.71
74633;BME280;63139;52.018;8.552;2023-06-14T04:03:30;100615.25;;;12.57;66.63
74633;BME280;63139;52.018;8.552;2023-06-14T04:06:02;100620.19;;;12.60;67.29
74633;BME280;63139;52.018;8.552;2023-06-14T04:08:30;100624.81;;;12.66;66.71
74633;BME280;63139;52.018;8.552;2023-06-14T04:10:59;100622.09;;;12.74;66.60
74633;BME280;63139;52.018;8.552;2023-06-14T04:13:27;100624.88;;;12.81;66.09
74633;BME280;63139;52.018;8.552;2023-06-14T04:15:55;100626.91;;;12.94;65.87
74633;BME280;63139;52.018;8.552;2023-06-14T04:18:32;100629.59;;;13.08;65.58
74633;BME280;63139;52.018;8.552;2023-06-14T04:21:00;100634.31;;;13.21;65.42
74633;BME280;63139;52.018;8.552;2023-06-14T04:23:29;100635.00;;;13.38;64.54
74633;BME280;63139;52.018;8.552;2023-06-14T04:25:57;100638.56;;;13.59;64.20
74633;BME280;63139;52.018;8.552;2023-06-14T04:28:30;100640.19;;;15.60;59.19
74633;BME280;63139;52.018;8.552;2023-06-14T04:31:00;100638.91;;;17.50;53.42
74633;BME280;63139;52.018;8.552;2023-06-14T04:33:30;100638.09;;;20.24;46.68
74633;BME280;63139;52.018;8.552;2023-06-14T04:35:58;100641.16;;;17.66;52.51
74633;BME280;63139;52.018;8.552;2023-06-14T04:38:26;100656.34;;;16.34;56.22
74633;BME280;63139;52.018;8.552;2023-06-14T04:40:56;100636.63;;;16.48;56.08
74633;BME280;63139;52.018;8.552;2023-06-14T04:43:24;100651.63;;;16.43;55.98
74633;BME280;63139;52.018;8.552;2023-06-14T04:45:54;100651.31;;;16.11;56.68
74633;BME280;63139;52.018;8.552;2023-06-14T04:48:23;100652.75;;;16.07;56.93
74633;BME280;63139;52.018;8.552;2023-06-14T04:50:51;100658.09;;;16.07;56.63
74633;BME280;63139;52.018;8.552;2023-06-14T04:53:20;100664.03;;;15.62;57.76
74633;BME280;63139;52.018;8.552;2023-06-14T04:55:52;100660.13;;;15.36;58.78
74633;BME280;63139;52.018;8.552;2023-06-14T04:58:20;100672.16;;;15.26;58.91
74633;BME280;63139;52.018;8.552;2023-06-14T05:00:48;100664.31;;;15.18;58.78
74633;BME280;63139;52.018;8.552;2023-06-14T05:03:17;100676.75;;;15.10;59.21
74633;BME280;63139;52.018;8.552;2023-06-14T05:05:48;100676.31;;;15.07;59.21
74633;BME280;63139;52.018;8.552;2023-06-14T05:08:17;100680.63;;;15.08;58.92
74633;BME280;63139;52.018;8.552;2023-06-14T05:10:45;100677.41;;;15.19;58.98
74633;BME280;63139;52.018;8.552;2023-06-14T05:13:13;100676.19;;;15.15;58.90
74633;BME280;63139;52.018;8.552;2023-06-14T05:15:41;100676.63;;;15.19;58.66
74633;BME280;63139;52.018;8.552;2023-06-14T05:18:09;100677.97;;;15.36;58.34
74633;BME280;63139;52.018;8.552;2023-06-14T05:20:38;100682.03;;;15.87;57.69
74633;BME280;63139;52.018;8.552;2023-06-14T05:23:08;100687.03;;;16.51;56.67
74633;BME280;63139;52.018;8.552;2023-06-14T05:25:43;100673.34;;;16.94;55.82
74633;BME280;63139;52.018;8.552;2023-06-14T05:28:11;100676.41;;;17.37;55.55
74633;BME280;63139;52.018;8.552;2023-06-14T05:30:39;100671.88;;;17.70;54.04
74633;BME280;63139;52.018;8.552;2023-06-14T05:33:07;100668.03;;;18.04;52.74
74633;BME280;63139;52.018;8.552;2023-06-14T05:35:35;100673.91;;;18.33;51.31
74633;BME280;63139;52.018;8.552;2023-06-14T05:38:06;100672.94;;;18.65;51.83
74633;BME280;63139;52.018;8.552;2023-06-14T05:40:34;100670.88;;;18.92;51.45
74633;BME280;63139;52.018;8.552;2023-06-14T05:43:02;100676.19;;;18.98;50.30
74633;BME280;63139;52.018;8.552;2023-06-14T05:45:30;100675.44;;;19.16;49.90
74633;BME280;63139;52.018;8.552;2023-06-14T05:47:58;100677.03;;;19.24;49.63
74633;BME280;63139;52.018;8.552;2023-06-14T05:50:26;100680.47;;;19.31;50.19
74633;BME280;63139;52.018;8.552;2023-06-14T05:52:53;100680.41;;;19.37;49.66
74633;BME280;63139;52.018;8.552;2023-06-14T05:55:23;100676.00;;;19.43;49.62
74633;BME280;63139;52.018;8.552;2023-06-14T05:57:51;100678.34;;;19.39;49.80
74633;BME280;63139;52.018;8.552;2023-06-14T06:00:19;100680.56;;;19.43;49.34
74633;BME280;63139;52.018;8.552;2023-06-14T06:02:47;100692.41;;;19.35;49.08
74633;BME280;63139;52.018;8.552;2023-06-14T06:05:15;100686.53;;;19.26;49.25
74633;BME280;63139;52.018;8.552;2023-06-14T06:07:44;100689.03;;;19.21;49.37
74633;BME280;63139;52.018;8.552;2023-06-14T06:10:12;100694.22;;;19.16;49.18
74633;BME280;63139;52.018;8.552;2023-06-14T06:12:42;100692.69;;;19.02;49.10
74633;BME280;63139;52.018;8.552;2023-06-14T06:15:10;100694.41;;;18.90;49.20
74633;BME280;63139;52.018;8.552;2023-06-14T06:17:39;100707.34;;;18.68;48.75
74633;BME280;63139;52.018;8.552;2023-06-14T06:20:21;100701.44;;;18.59;49.37
74633;BME280;63139;52.018;8.552;2023-06-14T06:22:54;100703.97;;;18.41;49.71
74633;BME280;63139;52.018;8.552;2023-06-14T06:25:22;100705.44;;;18.31;50.13
74633;BME280;63139;52.018;8.552;2023-06-14T06:27:54;100698.72;;;18.21;50.20
74633;BME280;63139;52.018;8.552;2023-06-14T06:30:23;100694.81;;;18.11;50.73
74633;BME280;63139;52.018;8.552;2023-06-14T06:32:51;100701.25;;;17.97;50.36
74633;BME280;63139;52.018;8.552;2023-06-14T06:35:19;100704.16;;;17.89;50.90
74633;BME280;63139;52.018;8.552;2023-06-14T06:37:47;100706.47;;;17.85;50.83
74633;BME280;63139;52.018;8.552;2023-06-14T06:40:15;100704.19;;;17.82;50.73
74633;BME280;63139;52.018;8.552;2023-06-14T06:42:43;100706.06;;;17.75;50.96
74633;BME280;63139;52.018;8.552;2023-06-14T06:45:14;100706.91;;;17.69;50.76
74633;BME280;63139;52.018;8.552;2023-06-14T06:47:42;100713.09;;;17.63;50.11
74633;BME280;63139;52.018;8.552;2023-06-14T06:50:10;100713.28;;;17.61;50.45
74633;BME280;63139;52.018;8.552;2023-06-14T06:52:38;100711.44;;;17.62;50.62
74633;BME280;63139;52.018;8.552;2023-06-14T06:55:07;100721.06;;;17.56;50.69
74633;BME280;63139;52.018;8.552;2023-06-14T06:57:35;100725.19;;;17.59;50.63
74633;BME280;63139;52.018;8.552;2023-06-14T07:00:03;100728.09;;;17.57;50.68
74633;BME280;63139;52.018;8.552;2023-06-14T07:02:36;100732.22;;;17.53;50.69
74633;BME280;63139;52.018;8.552;2023-06-14T07:05:04;100734.69;;;17.55;50.85
74633;BME280;63139;52.018;8.552;2023-06-14T07:07:32;100711.63;;;17.47;50.13
74633;BME280;63139;52.018;8.552;2023-06-14T07:10:00;100727.50;;;17.49;50.39
74633;BME280;63139;52.018;8.552;2023-06-14T07:12:31;100728.91;;;17.51;50.64
74633;BME280;63139;52.018;8.552;2023-06-14T07:15:01;100739.22;;;17.54;50.54
74633;BME280;63139;52.018;8.552;2023-06-14T07:17:30;100743.97;;;17.52;50.46
74633;BME280;63139;52.018;8.552;2023-06-14T07:20:00;100734.28;;;17.51;50.17
74633;BME280;63139;52.018;8.552;2023-06-14T07:22:38;100735.28;;;17.50;49.94
74633;BME280;63139;52.018;8.552;2023-06-14T07:25:09;100747.25;;;17.48;50.23
74633;BME280;63139;52.018;8.552;2023-06-14T07:27:39;100746.84;;;17.51;49.83
74633;BME280;63139;52.018;8.552;2023-06-14T07:30:08;100739.22;;;17.54;50.01
74633;BME280;63139;52.018;8.552;2023-06-14T07:32:36;100744.97;;;17.58;50.44
74633;BME280;63139;52.018;8.552;2023-06-14T07:35:06;100747.25;;;17.61;50.63
74633;BME280;63139;52.018;8.552;2023-06-14T07:37:34;100742.56;;;17.63;50.48
74633;BME280;63139;52.018;8.552;2023-06-14T07:40:03;100745.00;;;17.64;50.56
74633;BME280;63139;52.018;8.552;2023-06-14T07:42:33;100742.09;;;17.72;51.03
74633;BME280;63139;52.018;8.552;2023-06-14T07:45:02;100739.88;;;17.69;51.03
74633;BME280;63139;52.018;8.552;2023-06-14T07:47:31;100746.22;;;17.75;50.52
74633;BME280;63139;52.018;8.552;2023-06-14T07:49:59;100744.38;;;17.75;50.35
74633;BME280;63139;52.018;8.552;2023-06-14T07:52:28;100743.75;;;17.80;49.52
74633;BME280;63139;52.018;8.552;2023-06-14T07:54:57;100745.59;;;17.86;49.87
74633;BME280;63139;52.018;8.552;2023-06-14T07:57:25;100749.09;;;17.93;49.38
74633;BME280;63139;52.018;8.552;2023-06-14T07:59:53;100750.69;;;18.01;49.86
74633;BME280;63139;52.018;8.552;2023-06-14T08:02:21;100749.06;;;18.06;49.43
74633;BME280;63139;52.018;8.552;2023-06-14T08:04:49;100750.72;;;18.07;49.28
74633;BME280;63139;52.018;8.552;2023-06-14T08:07:17;100754.59;;;18.11;49.01
74633;BME280;63139;52.018;8.552;2023-06-14T08:09:46;100754.59;;;18.11;49.00
74633;BME280;63139;52.018;8.552;2023-06-14T08:12:14;100757.69;;;18.15;49.23
74633;BME280;63139;52.018;8.552;2023-06-14T08:14:42;100757.25;;;18.18;49.54
74633;BME280;63139;52.018;8.552;2023-06-14T08:17:10;100758.06;;;18.25;49.51
74633;BME280;63139;52.018;8.552;2023-06-14T08:19:37;100753.50;;;18.32;49.26
74633;BME280;63139;52.018;8.552;2023-06-14T08:22:05;100758.03;;;18.32;49.05
74633;BME280;63139;52.018;8.552;2023-06-14T08:24:33;100746.69;;;18.36;49.01
74633;BME280;63139;52.018;8.552;2023-06-14T08:27:02;100751.00;;;18.44;49.06
74633;BME280;63139;52.018;8.552;2023-06-14T08:29:30;100749.09;;;18.51;49.16
74633;BME280;63139;52.018;8.552;2023-06-14T08:31:58;100754.69;;;18.56;49.15
74633;BME280;63139;52.018;8.552;2023-06-14T08:34:27;100760.22;;;18.61;49.25
74633;BME280;63139;52.018;8.552;2023-06-14T08:36:54;100750.75;;;18.58;48.99
74633;BME280;63139;52.018;8.552;2023-06-14T08:39:22;100762.91;;;18.61;48.84
74633;BME280;63139;52.018;8.552;2023-06-14T08:41:52;100759.81;;;18.64;48.89
74633;BME280;63139;52.018;8.552;2023-06-14T08:44:21;100763.47;;;18.70;49.04
74633;BME280;63139;52.018;8.552;2023-06-14T08:46:50;100760.59;;;18.71;48.89
74633;BME280;63139;52.018;8.552;2023-06-14T08:49:19;100759.34;;;18.74;48.00
74633;BME280;63139;52.018;8.552;2023-06-14T08:51:50;100756.06;;;18.72;48.51
74633;BME280;63139;52.018;8.552;2023-06-14T08:54:22;100764.47;;;18.82;48.29
74633;BME280;63139;52.018;8.552;2023-06-14T08:56:51;100760.72;;;18.89;48.31
74633;BME280;63139;52.018;8.552;2023-06-14T08:59:21;100763.97;;;18.91;47.77
74633;BME280;63139;52.018;8.552;2023-06-14T09:01:49;100761.94;;;18.87;47.66
74633;BME280;63139;52.018;8.552;2023-06-14T09:04:38;100764.03;;;18.85;47.72
74633;BME280;63139;52.018;8.552;2023-06-14T09:07:05;100761.13;;;18.86;47.93
74633;BME280;63139;52.018;8.552;2023-06-14T09:09:38;100761.69;;;18.95;47.51
74633;BME280;63139;52.018;8.552;2023-06-14T09:12:08;100764.97;;;18.97;47.87
74633;BME280;63139;52.018;8.552;2023-06-14T09:14:39;100757.31;;;19.00;47.71
74633;BME280;63139;52.018;8.552;2023-06-14T09:17:13;100781.28;;;19.02;47.37
74633;BME280;63139;52.018;8.552;2023-06-14T09:19:41;100765.31;;;19.07;47.51
74633;BME280;63139;52.018;8.552;2023-06-14T09:22:11;100781.84;;;19.11;47.26
74633;BME280;63139;52.018;8.552;2023-06-14T09:24:41;100766.50;;;19.18;47.14
74633;BME280;63139;52.018;8.552;2023-06-14T09:27:14;100768.94;;;19.19;46.57
74633;BME280;63139;52.018;8.552;2023-06-14T09:29:44;100766.63;;;19.29;46.42
74633;BME280;63139;52.018;8.552;2023-06-14T09:32:12;100771.06;;;19.49;46.58
74633;BME280;63139;52.018;8.552;2023-06-14T09:34:40;100770.72;;;19.63;46.04
74633;BME280;63139;52.018;8.552;2023-06-14T09:37:08;100769.56;;;19.77;45.31
74633;BME280;63139;52.018;8.552;2023-06-14T09:39:49;100768.97;;;19.75;44.50
74633;BME280;63139;52.018;8.552;2023-06-14T09:42:17;100776.53;;;19.85;44.96
74633;BME280;63139;52.018;8.552;2023-06-14T09:44:48;100770.88;;;19.93;45.17
74633;BME280;63139;52.018;8.552;2023-06-14T09:47:18;100774.94;;;19.96;44.73
74633;BME280;63139;52.018;8.552;2023-06-14T09:49:46;100766.25;;;20.00;45.11
74633;BME280;63139;52.018;8.552;2023-06-14T09:52:16;100774.81;;;20.09;44.82
74633;BME280;63139;52.018;8.552;2023-06-14T09:54:46;100780.06;;;20.22;44.22
74633;BME280;63139;52.018;8.552;2023-06-14T09:57:15;100778.28;;;20.34;44.00
74633;BME280;63139;52.018;8.552;2023-06-14T09:59:45;100780.56;;;20.37;44.46
74633;BME280;63139;52.018;8.552;2023-06-14T10:02:21;100777.16;;;20.42;44.28
74633;BME280;63139;52.018;8.552;2023-06-14T10:04:56;100779.25;;;20.40;44.19
74633;BME280;63139;52.018;8.552;2023-06-14T10:07:30;100765.81;;;20.40;44.21
74633;BME280;63139;52.018;8.552;2023-06-14T10:09:59;100765.81;;;20.40;44.61
74633;BME280;63139;52.018;8.552;2023-06-14T10:12:27;100768.66;;;20.45;44.15
74633;BME280;63139;52.018;8.552;2023-06-14T10:14:55;100773.66;;;20.41;44.10
74633;BME280;63139;52.018;8.552;2023-06-14T10:17:33;100769.47;;;20.45;44.28
74633;BME280;63139;52.018;8.552;2023-06-14T10:20:14;100779.19;;;20.46;44.10
74633;BME280;63139;52.018;8.552;2023-06-14T10:22:49;100755.78;;;20.47;43.87
74633;BME280;63139;52.018;8.552;2023-06-14T10:25:27;100765.06;;;20.51;43.72
74633;BME280;63139;52.018;8.552;2023-06-14T10:28:03;100766.94;;;20.50;43.95
74633;BME280;63139;52.018;8.552;2023-06-14T10:31:01;100766.94;;;20.50;43.68
74633;BME280;63139;52.018;8.552;2023-06-14T10:33:32;100759.00;;;20.56;44.25
74633;BME280;63139;52.018;8.552;2023-06-14T10:36:24;100765.31;;;20.61;43.32
74633;BME280;63139;52.018;8.552;2023-06-14T10:38:57;100769.13;;;20.72;43.50
74633;BME280;63139;52.018;8.552;2023-06-14T10:41:27;100758.16;;;20.73;43.78
74633;BME280;63139;52.018;8.552;2023-06-14T10:44:31;100755.72;;;20.83;43.09
74633;BME280;63139;52.018;8.552;2023-06-14T10:47:00;100762.31;;;20.87;43.40
74633;BME280;63139;52.018;8.552;2023-06-14T10:49:41;100758.66;;;20.82;41.60
74633;BME280;63139;52.018;8.552;2023-06-14T10:52:11;100759.81;;;20.86;42.73
74633;BME280;63139;52.018;8.552;2023-06-14T10:55:10;100746.81;;;20.83;42.38
74633;BME280;63139;52.018;8.552;2023-06-14T10:57:43;100744.06;;;20.89;42.59
74633;BME280;63139;52.018;8.552;2023-06-14T11:00:19;100755.16;;;20.93;41.61
74633;BME280;63139;52.018;8.552;2023-06-14T11:05:58;100760.69;;;20.98;41.15
74633;BME280;63139;52.018;8.552;2023-06-14T11:11:42;100739.97;;;20.99;41.19
74633;BME280;63139;52.018;8.552;2023-06-14T11:14:10;100756.00;;;21.05;41.23
74633;BME280;63139;52.018;8.552;2023-06-14T11:16:38;100755.06;;;21.00;41.19
74633;BME280;63139;52.018;8.552;2023-06-14T11:19:05;100746.75;;;20.89;41.44
74633;BME280;63139;52.018;8.552;2023-06-14T11:21:39;100742.41;;;20.88;41.70
74633;BME280;63139;52.018;8.552;2023-06-14T11:24:10;100739.94;;;20.87;42.27
74633;BME280;63139;52.018;8.552;2023-06-14T11:26:38;100731.03;;;20.86;41.45
74633;BME280;63139;52.018;8.552;2023-06-14T11:29:06;100735.38;;;20.87;41.43
74633;BME280;63139;52.018;8.552;2023-06-14T11:31:33;100736.31;;;20.93;40.99
74633;BME280;63139;52.018;8.552;2023-06-14T11:34:01;100736.59;;;21.03;41.40
74633;BME280;63139;52.018;8.552;2023-06-14T11:36:31;100739.41;;;21.08;40.95
74633;BME280;63139;52.018;8.552;2023-06-14T11:39:05;100720.69;;;21.13;41.20
74633;BME280;63139;52.018;8.552;2023-06-14T11:41:36;100731.22;;;21.15;40.96
74633;BME280;63139;52.018;8.552;2023-06-14T11:44:04;100733.56;;;21.11;40.77
74633;BME280;63139;52.018;8.552;2023-06-14T11:46:34;100722.72;;;21.18;40.50
74633;BME280;63139;52.018;8.552;2023-06-14T11:49:03;100734.88;;;21.20;39.99
74633;BME280;63139;52.018;8.552;2023-06-14T11:51:35;100719.59;;;21.33;40.36
74633;BME280;63139;52.018;8.552;2023-06-14T11:54:05;100724.16;;;21.44;39.44
74633;BME280;63139;52.018;8.552;2023-06-14T11:56:34;100716.66;;;21.57;39.85
74633;BME280;63139;52.018;8.552;2023-06-14T11:59:03;100720.19;;;21.69;40.04
74633;BME280;63139;52.018;8.552;2023-06-14T12:01:35;100721.34;;;21.74;40.00
74633;BME280;63139;52.018;8.552;2023-06-14T12:04:04;100711.28;;;21.69;40.30
74633;BME280;63139;52.018;8.552;2023-06-14T12:06:32;100732.13;;;21.74;40.59
74633;BME280;63139;52.018;8.552;2023-06-14T12:09:05;100725.78;;;21.80;40.20
74633;BME280;63139;52.018;8.552;2023-06-14T12:11:39;100716.19;;;21.72;40.14
74633;BME280;63139;52.018;8.552;2023-06-14T12:14:08;100713.47;;;21.95;39.33
74633;BME280;63139;52.018;8.552;2023-06-14T12:16:38;100714.41;;;22.13;38.83
74633;BME280;63139;52.018;8.552;2023-06-14T12:19:12;100709.84;;;22.41;38.32
74633;BME280;63139;52.018;8.552;2023-06-14T12:21:41;100706.56;;;22.79;38.06
74633;BME280;63139;52.018;8.552;2023-06-14T12:24:12;100716.34;;;23.14;38.10
74633;BME280;63139;52.018;8.552;2023-06-14T12:26:41;100712.00;;;23.30;37.79
74633;BME280;63139;52.018;8.552;2023-06-14T12:29:09;100713.88;;;23.29;37.08
74633;BME280;63139;52.018;8.552;2023-06-14T12:31:39;100717.03;;;23.54;37.72
74633;BME280;63139;52.018;8.552;2023-06-14T12:34:07;100701.09;;;23.58;37.02
74633;BME280;63139;52.018;8.552;2023-06-14T12:36:34;100708.56;;;23.68;37.19
74633;BME280;63139;52.018;8.552;2023-06-14T12:39:07;100694.69;;;23.64;36.79
74633;BME280;63139;52.018;8.552;2023-06-14T12:41:36;100699.56;;;23.62;37.03
74633;BME280;63139;52.018;8.552;2023-06-14T12:44:04;100707.84;;;23.55;37.27
74633;BME280;63139;52.018;8.552;2023-06-14T12:46:33;100720.81;;;23.42;37.45
74633;BME280;63139;52.018;8.552;2023-06-14T12:49:02;100717.16;;;23.31;37.00
74633;BME280;63139;52.018;8.552;2023-06-14T12:51:29;100712.16;;;23.40;37.27
74633;BME280;63139;52.018;8.552;2023-06-14T12:53:57;100706.25;;;23.43;37.16
74633;BME280;63139;52.018;8.552;2023-06-14T12:56:25;100713.97;;;23.51;37.27
74633;BME280;63139;52.018;8.552;2023-06-14T12:58:54;100705.19;;;23.44;36.60
74633;BME280;63139;52.018;8.552;2023-06-14T13:01:22;100721.41;;;23.44;36.50
74633;BME280;63139;52.018;8.552;2023-06-14T13:03:50;100706.09;;;23.49;36.92
74633;BME280;63139;52.018;8.552;2023-06-14T13:06:21;100714.94;;;23.45;36.25
74633;BME280;63139;52.018;8.552;2023-06-14T13:08:49;100710.19;;;23.35;36.80
74633;BME280;63139;52.018;8.552;2023-06-14T13:11:17;100704.38;;;23.43;36.49